Time;durP1;ratioP1;P1;durP2;ratioP2;P2;SDS_P1;SDS_P2;PMS_P1;PMS_P2;Temp;Humidity;BMP_temperature;BMP_pressure;BME280_temperature;BME280_humidity;BME280_pressure;Samples;Min_cycle;Max_cycle;Signal;HPM_P1;HPM_P2
2022/05/24 00:01:57;;;;;;;7.35;5.80;;;;;;;14.59;100.00;99503.72;10453842;28;20152;-68
2022/05/24 00:06:59;;;;;;;17.42;6.35;;;;;;;14.58;100.00;99500.22;10454747;28;20051;-68
2022/05/24 00:11:59;;;;;;;6.68;6.07;;;;;;;14.61;100.00;99497.13;10454033;28;20578;-68
2022/05/24 00:17:00;;;;;;;6.35;5.78;;;;;;;13.16;100.00;99277.84;10453642;28;20131;-68
2022/05/24 00:22:02;;;;;;;8.10;6.07;;;;;;;14.57;100.00;99501.28;10453466;28;20127;-68
2022/05/24 00:27:03;;;;;;;5.85;5.22;;;;;;;14.49;100.00;99484.66;10453964;28;20033;-71
2022/05/24 00:32:04;;;;;;;5.68;5.00;;;;;;;14.64;100.00;99503.09;10453948;28;20052;-68
2022/05/24 00:37:05;;;;;;;7.38;4.90;;;;;;;14.39;100.00;99469.91;10453237;28;20086;-68
2022/05/24 00:42:12;;;;;;;6.90;6.20;;;;;;;14.59;100.00;99517.91;10472622;28;20492;-68
2022/05/24 00:47:37;;;;;;;8.43;6.40;;;;;;;14.57;100.00;99530.69;10495744;28;20029;-68
2022/05/24 00:53:02;;;;;;;7.85;6.13;;;;;;;14.01;100.00;99431.69;10494542;28;20044;-68
2022/05/24 00:58:16;;;;;;;6.80;5.97;;;;;;;13.87;100.00;99438.91;10495358;28;20072;-68
2022/05/24 01:03:17;;;;;;;6.10;5.60;;;;;;;13.78;100.00;99429.50;10494947;28;20048;-68
2022/05/24 01:08:18;;;;;;;6.57;5.88;;;;;;;14.37;100.00;99535.25;10494282;28;20400;-68
2022/05/24 01:13:24;;;;;;;6.35;5.75;;;;;;;14.45;100.00;99545.72;10501999;28;20086;-67
2022/05/24 01:18:25;;;;;;;7.75;6.28;;;;;;;14.46;100.00;99551.88;10501730;28;20051;-67
2022/05/24 01:23:46;;;;;;;7.50;6.28;;;;;;;14.47;100.00;99538.28;10501544;28;20396;-67
2022/05/24 01:28:56;;;;;;;8.50;5.40;;;;;;;13.89;100.00;99455.53;10500650;28;20029;-68
2022/05/24 01:39:34;;;;;;;7.13;5.43;;;;;;;14.18;100.00;99533.47;10498188;28;20040;-67
2022/05/24 01:44:38;;;;;;;8.30;5.40;;;;;;;14.27;100.00;99557.09;10500370;28;20047;-68
2022/05/24 01:49:40;;;;;;;;;;;;;;;14.40;100.00;99572.25;10500390;28;20083;-68
2022/05/24 01:54:45;;;;;;;6.07;5.20;;;;;;;14.02;100.00;99569.50;10500468;28;19920;-68
2022/05/24 01:59:49;;;;;;;5.50;5.00;;;;;;;14.16;100.00;99595.13;10500378;28;20032;-68
2022/05/24 02:04:50;;;;;;;;;;;;;;;14.31;100.00;99597.56;10501389;28;20113;-68
2022/05/24 02:09:56;;;;;;;5.68;4.72;;;;;;;14.00;100.00;99583.06;10500183;28;19972;-68
2022/05/24 02:15:21;;;;;;;5.53;4.60;;;;;;;14.16;100.00;99619.19;10490089;28;20047;-68
2022/05/24 02:20:28;;;;;;;5.57;4.85;;;;;;;14.03;100.00;99633.38;10457590;28;20140;-68
2022/05/24 02:25:37;;;;;;;5.18;4.68;;;;;;;13.98;100.00;99632.38;10458388;28;20090;-68
2022/05/24 02:30:50;;;;;;;6.75;5.32;;;;;;;14.01;100.00;99626.59;10457614;28;20044;-68
2022/05/24 02:35:52;;;;;;;7.57;4.97;;;;;;;13.79;100.00;99607.31;10457335;28;20040;-68
2022/05/24 02:46:14;;;;;;;7.47;6.38;;;;;;;14.01;100.00;99603.38;10479729;28;20036;-68
2022/05/24 02:51:16;;;;;;;9.05;6.22;;;;;;;14.23;100.00;99627.16;10498705;28;20040;-68
2022/05/24 02:56:17;;;;;;;8.63;5.55;;;;;;;14.41;100.00;99643.34;10497395;28;20131;-68
2022/05/24 03:01:27;;;;;;;6.03;5.43;;;;;;;14.57;100.00;99629.56;10481812;28;20409;-68
2022/05/24 03:09:33;;;;;;;7.15;4.45;;;;;;;13.93;100.00;99518.97;10456290;28;20512;-68
2022/05/24 03:17:08;;;;;;;5.13;3.58;;;;;;;14.80;100.00;99630.91;10455270;28;20044;-68
2022/05/24 03:22:09;;;;;;;7.65;3.20;;;;;;;15.02;100.00;99634.09;10474537;28;20041;-68
2022/05/24 03:27:13;;;;;;;3.10;2.30;;;;;;;14.61;99.89;99550.59;10494639;28;20043;-68
2022/05/24 03:32:15;;;;;;;;;;;;;;;15.46;97.41;99627.00;10484107;28;20083;-68
2022/05/24 03:37:16;;;;;;;3.78;1.98;;;;;;;16.35;95.61;99631.16;10490577;28;19927;-70
2022/05/24 03:42:17;;;;;;;4.70;1.88;;;;;;;17.78;90.00;99632.34;10491973;28;20055;-69
2022/05/24 03:47:18;;;;;;;5.82;1.52;;;;;;;17.39;84.70;99482.63;10493774;28;20133;-67
2022/05/24 03:52:19;;;;;;;4.45;1.88;;;;;;;18.55;83.45;99644.00;10493167;28;20040;-70
2022/05/24 04:02:39;;;;;;;2.65;1.25;;;;;;;18.19;80.37;99611.78;10492660;28;20055;-71
2022/05/24 04:07:41;;;;;;;2.72;1.30;;;;;;;18.34;79.49;99595.16;10459775;28;20108;-72
2022/05/24 04:12:42;;;;;;;2.28;1.30;;;;;;;19.10;76.93;99684.69;10412511;28;20041;-69
2022/05/24 04:17:43;;;;;;;1.17;0.90;;;;;;;20.34;70.49;99663.28;10413022;28;20044;-71
2022/05/24 04:22:44;;;;;;;4.95;1.27;;;;;;;21.94;67.37;99664.78;10413316;28;20049;-71
2022/05/24 04:27:45;;;;;;;2.90;1.17;;;;;;;21.14;66.02;99661.88;10413175;28;20041;-72
2022/05/24 04:32:46;;;;;;;2.42;1.02;;;;;;;20.19;65.65;99512.88;10412116;28;20045;-72
2022/05/24 04:37:47;;;;;;;2.13;1.00;;;;;;;19.96;65.58;99586.72;10412161;28;20128;-71
2022/05/24 04:42:48;;;;;;;2.08;1.10;;;;;;;20.87;64.66;99645.63;10412222;28;20124;-74
2022/05/24 04:47:48;;;;;;;55.35;22.70;;;;;;;19.84;66.72;99673.09;10418494;28;20132;-74
2022/05/24 04:52:49;;;;;;;9.15;4.53;;;;;;;18.25;67.48;99535.56;10419873;28;20119;-72
2022/05/24 04:57:50;;;;;;;3.78;2.42;;;;;;;18.34;68.51;99666.94;10419258;28;20058;-72
2022/05/24 05:02:52;;;;;;;2.47;1.30;;;;;;;17.60;70.43;99647.72;10419437;28;20091;-72
2022/05/24 05:07:53;;;;;;;2.70;1.52;;;;;;;17.92;71.00;99649.06;10419237;28;20045;-71
2022/05/24 05:12:54;;;;;;;2.90;0.95;;;;;;;18.64;69.98;99672.97;10418081;28;20049;-70
2022/05/24 05:18:10;;;;;;;1.88;1.10;;;;;;;18.97;69.21;99674.19;10418555;28;20042;-68
2022/05/24 05:23:13;;;;;;;1.20;0.75;;;;;;;18.28;67.50;99587.19;10416955;28;20092;-69
2022/05/24 05:28:18;;;;;;;3.45;1.30;;;;;;;17.76;68.91;99553.00;10417931;28;20045;-69
2022/05/24 05:33:19;;;;;;;3.17;1.40;;;;;;;18.01;69.75;99654.91;10412251;28;20512;-72
2022/05/24 05:38:21;;;;;;;1.45;0.80;;;;;;;17.74;70.38;99667.94;10416793;28;20045;-68
2022/05/24 05:43:22;;;;;;;2.33;0.90;;;;;;;17.74;70.40;99674.13;10396622;28;20041;-68
2022/05/24 05:48:23;;;;;;;3.78;0.90;;;;;;;17.38;69.44;99599.09;10376635;28;20038;-68
2022/05/24 05:53:24;;;;;;;1.25;0.68;;;;;;;17.15;68.19;99543.50;10374194;28;20064;-68
2022/05/24 05:58:26;;;;;;;3.60;0.70;;;;;;;17.96;67.43;99662.84;10390488;28;20062;-73
2022/05/24 06:03:26;;;;;;;2.10;0.73;;;;;;;18.70;65.88;99682.78;10415719;28;20080;-70
2022/05/24 06:08:27;;;;;;;2.53;0.70;;;;;;;17.60;65.31;99559.91;10407986;28;20072;-70
2022/05/24 06:13:28;;;;;;;1.17;0.65;;;;;;;17.52;66.49;99568.28;10384698;28;20132;-71
2022/05/24 06:18:29;;;;;;;7.15;1.40;;;;;;;18.22;65.67;99675.81;10385393;28;20037;-71
2022/05/24 06:23:30;;;;;;;3.63;0.95;;;;;;;18.31;66.40;99670.06;10409461;28;20143;-72
2022/05/24 06:28:31;;;;;;;1.60;0.57;;;;;;;18.78;64.62;99689.69;10404497;28;20056;-71
2022/05/24 06:33:31;;;;;;;1.20;0.60;;;;;;;18.42;64.47;99688.06;10398451;28;20445;-71
2022/05/24 06:38:32;;;;;;;6.80;0.93;;;;;;;18.10;65.54;99685.78;10400867;28;20041;-71
2022/05/24 06:43:34;;;;;;;0.98;0.52;;;;;;;18.52;64.65;99688.31;10399465;28;20053;-71
2022/05/24 06:48:41;;;;;;;19.00;2.55;;;;;;;19.27;62.64;99697.38;10401419;28;20037;-70
2022/05/24 06:53:44;;;;;;;2.30;1.20;;;;;;;19.33;61.73;99697.22;10399125;28;20076;-71
2022/05/24 06:58:45;;;;;;;3.70;0.98;;;;;;;19.60;61.43;99675.06;10373444;28;20061;-71
2022/05/24 07:03:47;;;;;;;1.02;0.60;;;;;;;18.36;61.28;99498.09;10374737;28;20088;-71
2022/05/24 07:17:36;;;;;;;0.93;0.60;;;;;;;19.35;60.76;99699.66;10473896;27;20434;-70
2022/05/24 07:22:37;;;;;;;1.42;0.80;;;;;;;18.96;60.15;99589.13;10440737;28;20041;-71
2022/05/24 07:27:38;;;;;;;8.60;3.03;;;;;;;19.89;58.06;99667.75;10448652;28;20033;-71
2022/05/24 07:37:01;;;;;;;2.20;0.98;;;;;;;19.85;58.46;99696.25;10464245;28;20479;-71
2022/05/24 07:47:23;;;;;;;6.93;1.33;;;;;;;18.93;60.25;99595.81;10464497;28;20041;-71
2022/05/24 07:52:24;;;;;;;41.15;17.23;;;;;;;19.46;58.77;99682.63;10468483;28;20032;-71
2022/05/24 07:57:25;;;;;;;155.88;70.15;;;;;;;19.48;58.84;99702.09;10436567;28;20076;-70
2022/05/24 08:02:25;;;;;;;17.67;8.23;;;;;;;19.49;58.36;99701.00;10410121;28;20418;-73
2022/05/24 08:07:27;;;;;;;7.05;2.72;;;;;;;19.75;58.68;99720.38;10421038;28;20037;-72
2022/05/24 08:12:28;;;;;;;15.65;6.13;;;;;;;19.29;57.71;99669.13;10447268;28;20148;-70
2022/05/24 08:17:29;;;;;;;10.20;2.40;;;;;;;19.36;58.33;99698.63;10447611;28;20132;-71
2022/05/24 08:22:30;;;;;;;5.43;1.30;;;;;;;19.43;58.10;99728.91;10467339;28;20048;-73
2022/05/24 08:27:32;;;;;;;1.63;0.88;;;;;;;19.26;58.21;99710.00;10487149;28;20416;-71
2022/05/24 08:32:34;;;;;;;5.80;0.80;;;;;;;19.33;58.15;99728.72;10487426;28;20164;-72
2022/05/24 08:37:35;;;;;;;4.10;1.33;;;;;;;19.24;57.90;99687.91;10454743;28;20049;-71
2022/05/24 08:42:54;;;;;;;2.30;1.00;;;;;;;19.46;57.89;99735.69;10405361;28;20049;-71
2022/05/24 08:53:28;;;;;;;5.63;1.10;;;;;;;19.08;57.72;99707.50;10377352;28;20046;-72
2022/05/24 08:58:43;;;;;;;5.15;1.33;;;;;;;19.22;55.58;99695.41;10377407;28;20041;-71
2022/05/24 09:03:45;;;;;;;1.90;1.00;;;;;;;18.93;56.23;99621.88;10412018;28;20446;-71
2022/05/24 09:08:54;;;;;;;2.58;0.85;;;;;;;19.61;53.71;99736.78;10425229;28;20552;-73
2022/05/24 09:14:03;;;;;;;1.05;0.60;;;;;;;18.23;54.35;99518.03;10417956;28;20045;-71
2022/05/24 09:19:39;;;;;;;2.90;0.93;;;;;;;19.81;54.97;99733.69;10418474;28;20049;-71
2022/05/24 09:24:44;;;;;;;2.72;1.15;;;;;;;19.60;54.56;99713.59;10406318;28;20055;-72
2022/05/24 09:29:57;;;;;;;2.97;0.88;;;;;;;19.89;53.03;99705.47;10418119;28;20277;-70
2022/05/24 09:35:21;;;;;;;;;;;;;;;20.64;51.03;99720.41;10424544;28;20134;-71
2022/05/24 09:40:24;;;;;;;0.70;0.50;;;;;;;20.27;52.70;99717.41;10415041;28;19921;-70
2022/05/24 09:45:36;;;;;;;7.70;0.98;;;;;;;20.92;53.46;99716.72;10438054;28;20095;-70
2022/05/24 09:50:39;;;;;;;4.72;0.80;;;;;;;20.09;50.65;99574.78;10433768;28;20059;-73
2022/05/24 09:55:55;;;;;;;6.05;0.90;;;;;;;21.22;50.24;99711.94;10433444;28;20052;-72
2022/05/24 10:01:02;;;;;;;1.20;0.60;;;;;;;21.56;49.14;99712.56;10447901;28;20037;-71
2022/05/24 10:06:12;;;;;;;8.35;1.60;;;;;;;21.33;49.96;99709.09;10453414;28;20106;-71
2022/05/24 10:11:24;;;;;;;11.50;2.13;;;;;;;21.78;48.12;99707.09;10426077;28;20094;-70
2022/05/24 10:16:36;;;;;;;1.83;0.90;;;;;;;20.94;48.53;99627.38;10456904;28;20056;-72
2022/05/24 10:21:58;;;;;;;4.93;0.95;;;;;;;20.18;47.81;99493.19;10457005;28;20051;-71
2022/05/24 10:27:13;;;;;;;24.98;11.15;;;;;;;20.26;46.82;99498.13;10456514;28;20059;-71
2022/05/24 10:38:19;;;;;;;1.48;0.77;;;;;;;21.08;46.52;99604.28;10386812;28;20048;-70
2022/05/24 10:43:44;;;;;;;1.35;0.70;;;;;;;21.73;45.04;99705.16;10422529;28;20400;-73
2022/05/24 10:49:02;;;;;;;0.95;0.70;;;;;;;22.09;46.05;99702.75;10412188;28;20084;-72
2022/05/24 10:54:16;;;;;;;0.80;0.60;;;;;;;22.14;44.84;99691.97;10401168;28;20133;-72
2022/05/24 10:59:20;;;;;;;;;;;;;;;22.47;45.53;99690.03;10373513;28;20042;-74
2022/05/24 11:04:26;;;;;;;4.05;1.35;;;;;;;22.46;44.48;99688.38;10372484;28;19924;-73
2022/05/24 11:09:29;;;;;;;1.27;0.50;;;;;;;22.84;44.47;99697.25;10372166;28;20575;-73
2022/05/24 11:14:33;;;;;;;0.70;0.60;;;;;;;22.95;44.05;99693.53;10372205;28;20458;-74
2022/05/24 11:19:41;;;;;;;7.07;0.73;;;;;;;22.59;43.30;99697.97;10372654;28;20042;-72
2022/05/24 11:25:07;;;;;;;1.40;0.68;;;;;;;21.38;45.02;99646.19;10371972;28;20042;-72
2022/05/24 11:30:17;;;;;;;1.45;0.60;;;;;;;21.41;45.78;99700.53;10374108;28;20045;-71
2022/05/24 11:35:20;;;;;;;3.80;0.63;;;;;;;21.03;45.18;99681.72;10407163;28;20096;-74
2022/05/24 11:40:38;;;;;;;5.35;0.70;;;;;;;21.07;45.20;99699.06;10412490;28;20132;-72
2022/05/24 11:46:00;;;;;;;2.65;0.70;;;;;;;21.08;44.58;99698.00;10372322;28;20137;-66
2022/05/24 11:51:31;;;;;;;1.48;0.63;;;;;;;21.07;47.33;99702.56;10372981;28;20041;-66
2022/05/24 11:56:33;;;;;;;2.35;0.60;;;;;;;21.05;46.19;99690.38;10371280;28;20045;-67
2022/05/24 12:01:41;;;;;;;2.35;0.60;;;;;;;21.16;45.13;99697.53;10402299;28;20099;-67
2022/05/24 12:12:51;;;;;;;1.20;0.70;;;;;;;20.70;44.80;99603.34;10392213;28;20045;-66
2022/05/24 12:17:58;;;;;;;4.25;0.80;;;;;;;21.41;46.13;99726.75;10412385;28;20072;-67
2022/05/24 12:23:09;;;;;;;3.63;0.85;;;;;;;21.25;45.21;99725.75;10418813;28;20053;-67
2022/05/24 12:28:12;;;;;;;7.47;1.15;;;;;;;20.75;47.05;99680.84;10418015;28;20394;-67
2022/05/24 12:33:35;;;;;;;3.05;0.80;;;;;;;20.29;45.96;99645.97;10420421;28;20489;-67
2022/05/24 12:38:37;;;;;;;1.27;0.70;;;;;;;20.67;47.09;99746.91;10404737;28;20049;-67
2022/05/24 12:43:50;;;;;;;5.10;0.85;;;;;;;20.59;47.58;99730.31;10392828;28;20049;-66
2022/05/24 12:48:59;;;;;;;1.70;0.60;;;;;;;20.63;47.45;99742.22;10418992;28;20045;-66
2022/05/24 12:54:27;;;;;;;2.20;0.88;;;;;;;20.58;48.63;99731.34;10405214;28;20046;-66
2022/05/24 12:59:37;;;;;;;8.10;4.00;;;;;;;19.87;50.02;99661.81;10402901;28;20123;-67
2022/05/24 13:04:38;;;;;;;2.67;0.90;;;;;;;20.22;51.51;99768.56;10424471;28;20127;-66
2022/05/24 13:09:43;;;;;;;5.25;1.30;;;;;;;19.95;53.13;99774.63;10385739;28;20052;-69
2022/05/24 13:14:59;;;;;;;1.27;0.68;;;;;;;19.72;53.52;99788.22;10402310;28;20134;-66
2022/05/24 13:20:06;;;;;;;1.60;0.80;;;;;;;19.38;54.34;99788.06;10434173;28;20048;-67
2022/05/24 13:25:13;;;;;;;2.42;0.60;;;;;;;18.85;55.60;99721.88;10434596;28;20033;-67
2022/05/24 13:35:43;;;;;;;3.08;0.90;;;;;;;18.86;56.75;99745.81;10415363;28;20095;-67
2022/05/24 13:40:54;;;;;;;1.58;0.70;;;;;;;19.18;56.94;99799.25;10413555;28;20089;-67
2022/05/24 13:46:16;;;;;;;2.92;0.80;;;;;;;19.25;57.26;99804.50;10382250;28;20608;-67
2022/05/24 13:51:24;;;;;;;2.83;0.98;;;;;;;18.94;56.65;99763.50;10400827;28;20505;-67
2022/05/24 13:56:26;;;;;;;2.58;0.95;;;;;;;19.21;56.98;99814.13;10400749;28;20076;-69
2022/05/24 14:01:38;;;;;;;2.08;1.00;;;;;;;19.03;57.79;99809.72;10375223;28;20498;-67
2022/05/24 14:06:46;;;;;;;2.53;0.73;;;;;;;19.05;57.40;99824.53;10398863;28;20037;-66
2022/05/24 14:12:02;;;;;;;1.05;0.68;;;;;;;18.28;59.66;99721.63;10415836;28;20045;-67
2022/05/24 14:17:07;;;;;;;2.65;1.33;;;;;;;18.57;60.75;99800.56;10392799;28;20497;-66
2022/05/24 14:22:09;;;;;;;4.18;1.52;;;;;;;17.89;61.54;99710.50;10414890;28;20096;-66
2022/05/24 14:27:12;;;;;;;4.28;2.88;;;;;;;17.76;61.95;99717.69;10414694;28;20037;-67
2022/05/24 14:32:13;;;;;;;5.40;1.67;;;;;;;18.32;62.14;99819.63;10414131;28;20496;-68
2022/05/24 14:37:16;;;;;;;2.58;1.10;;;;;;;18.38;62.01;99853.66;10412879;28;20092;-67
2022/05/24 14:42:20;;;;;;;3.25;1.42;;;;;;;16.84;61.76;99629.38;10414634;28;20075;-68
2022/05/24 14:47:21;;;;;;;3.25;0.90;;;;;;;18.29;61.87;99874.66;10413807;28;20448;-67
2022/05/24 14:52:25;;;;;;;6.63;1.17;;;;;;;18.17;62.58;99845.06;10421826;28;20037;-68
2022/05/24 14:57:26;;;;;;;1.83;0.90;;;;;;;18.28;62.05;99848.00;10404933;28;20041;-68
2022/05/24 15:02:27;;;;;;;1.50;1.00;;;;;;;18.62;61.42;99839.16;10398490;28;20077;-68
2022/05/24 15:18:08;;;;;;;2.35;1.17;;;;;;;18.83;62.48;99867.41;10400426;28;20042;-67
2022/05/24 15:23:17;;;;;;;3.72;1.48;;;;;;;18.65;62.95;99870.16;10372649;28;20054;-66
2022/05/24 15:28:21;;;;;;;6.47;1.60;;;;;;;18.62;64.20;99900.22;10398362;28;20041;-67
2022/05/24 15:33:23;;;;;;;7.60;3.63;;;;;;;18.29;63.71;99868.47;10372104;28;20042;-67
2022/05/24 15:38:24;;;;;;;5.38;1.30;;;;;;;18.05;64.22;99863.03;10371525;28;20050;-67
2022/05/24 15:43:26;;;;;;;5.65;1.30;;;;;;;18.10;64.03;99903.50;10371521;28;20473;-68
2022/05/24 15:48:27;;;;;;;2.95;1.08;;;;;;;18.01;64.80;99904.84;10371496;28;20137;-67
2022/05/24 15:53:31;;;;;;;2.45;1.05;;;;;;;17.10;64.98;99765.06;10371352;28;20136;-67
2022/05/24 15:58:33;;;;;;;5.00;1.35;;;;;;;17.77;66.10;99894.00;10378459;28;20414;-67
2022/05/24 16:03:34;;;;;;;2.15;0.95;;;;;;;17.89;66.40;99925.44;10379897;28;20038;-67
2022/05/24 16:14:00;;;;;;;2.08;1.10;;;;;;;17.79;68.96;99942.13;10409530;28;20060;-67
2022/05/24 16:19:01;;;;;;;9.32;1.85;;;;;;;17.72;68.48;99939.47;10380719;28;20419;-67
2022/05/24 16:24:02;;;;;;;2.17;1.15;;;;;;;17.49;68.84;99918.66;10385264;28;20041;-67
2022/05/24 16:29:04;;;;;;;5.30;1.17;;;;;;;17.46;69.38;99929.03;10420590;28;20038;-66
2022/05/24 16:34:05;;;;;;;3.55;1.08;;;;;;;16.93;69.04;99852.59;10419684;28;20057;-67
2022/05/24 16:39:07;;;;;;;4.53;1.13;;;;;;;16.54;70.14;99813.47;10417872;28;20111;-66
2022/05/24 16:44:10;;;;;;;6.75;1.30;;;;;;;17.26;70.52;99956.91;10418918;28;20045;-67
2022/05/24 16:49:10;;;;;;;2.20;1.20;;;;;;;16.73;71.46;99876.06;10419842;28;20551;-71
2022/05/24 16:59:31;;;;;;;3.80;1.60;;;;;;;17.00;74.29;99967.88;10418462;28;20043;-72
2022/05/24 17:04:32;;;;;;;2.55;1.65;;;;;;;16.28;75.42;99863.59;10418738;28;20158;-71
2022/05/24 17:09:34;;;;;;;2.83;1.50;;;;;;;17.02;76.82;99993.47;10413187;28;20378;-71
2022/05/24 17:14:35;;;;;;;5.05;1.73;;;;;;;16.32;77.70;99896.16;10414482;28;20115;-71
2022/05/24 17:19:36;;;;;;;3.00;1.70;;;;;;;16.91;78.54;100009.44;10412207;28;20049;-71
2022/05/24 17:24:37;;;;;;;3.30;2.00;;;;;;;16.70;79.54;99995.31;10386465;28;20378;-72
2022/05/24 17:29:38;;;;;;;3.42;2.00;;;;;;;15.94;80.31;99880.91;10394664;28;20545;-72
2022/05/24 17:34:39;;;;;;;10.35;2.60;;;;;;;16.76;81.50;100023.16;10384173;28;20497;-72
2022/05/24 17:39:40;;;;;;;3.20;1.98;;;;;;;16.75;82.29;100035.72;10376447;28;20180;-73
2022/05/24 17:44:41;;;;;;;3.88;2.00;;;;;;;16.64;82.65;100031.84;10390334;28;20477;-72
2022/05/24 17:49:42;;;;;;;3.10;1.98;;;;;;;16.69;82.87;100049.97;10391131;28;20049;-73
2022/05/24 17:54:43;;;;;;;3.00;1.83;;;;;;;15.84;83.50;99923.41;10405519;28;20408;-73
2022/05/24 17:59:43;;;;;;;4.43;1.75;;;;;;;16.14;83.90;99996.03;10376106;28;20046;-73
2022/05/24 18:04:44;;;;;;;3.15;1.85;;;;;;;16.60;84.46;100080.75;10379413;28;20046;-73
2022/05/24 18:09:45;;;;;;;2.97;1.92;;;;;;;16.40;84.64;100048.69;10428176;28;20045;-73
2022/05/24 18:14:46;;;;;;;3.20;2.00;;;;;;;16.52;85.16;100097.13;10457331;28;20079;-73
2022/05/24 18:19:46;;;;;;;7.43;2.13;;;;;;;16.49;85.67;100108.28;10455219;28;20039;-73
2022/05/24 18:24:59;;;;;;;5.25;1.55;;;;;;;16.23;87.18;100077.00;10456811;28;20045;-74
2022/05/24 18:35:49;;;;;;;6.07;1.83;;;;;;;16.14;87.44;100113.94;10451086;28;20464;-73
2022/05/24 18:40:49;;;;;;;4.40;1.80;;;;;;;15.24;85.43;99987.78;10374611;28;20493;-73
2022/05/24 18:45:51;;;;;;;4.05;1.52;;;;;;;15.16;84.98;99988.81;10374208;28;20042;-74
2022/05/24 18:50:52;;;;;;;3.15;1.52;;;;;;;15.90;83.85;100124.28;10378735;28;20052;-73
2022/05/24 18:55:53;;;;;;;2.70;1.50;;;;;;;15.90;82.64;100129.63;10400188;28;20045;-73
2022/05/24 19:00:54;;;;;;;3.70;2.03;;;;;;;15.75;81.27;100110.28;10411516;28;20059;-73
2022/05/24 19:05:56;;;;;;;5.47;2.20;;;;;;;15.80;80.32;100129.25;10384289;28;20049;-73
2022/05/24 19:10:58;;;;;;;5.75;2.15;;;;;;;15.52;79.87;100095.47;10395120;28;20030;-73
2022/05/24 19:15:59;;;;;;;3.95;2.15;;;;;;;15.67;79.69;100124.69;10392084;28;20046;-73
2022/05/24 19:21:00;;;;;;;3.67;2.03;;;;;;;15.60;79.59;100126.53;10372736;28;20038;-73
2022/05/24 19:26:03;;;;;;;4.10;2.10;;;;;;;15.46;79.04;100122.19;10372656;28;20052;-73
2022/05/24 19:31:04;;;;;;;5.75;2.28;;;;;;;15.50;78.94;100144.88;10372100;28;20044;-73
2022/05/24 19:36:05;;;;;;;2.88;1.73;;;;;;;14.98;78.90;100084.88;10372564;28;20152;-72
2022/05/24 19:46:25;;;;;;;6.55;2.00;;;;;;;15.13;78.85;100100.75;10373475;28;20050;-73
2022/05/24 19:51:27;;;;;;;3.22;1.60;;;;;;;15.40;78.88;100161.31;10374800;28;20038;-73
2022/05/24 19:56:28;;;;;;;3.03;1.42;;;;;;;15.39;79.10;100145.47;10411023;28;20163;-72
2022/05/24 20:01:29;;;;;;;3.42;1.90;;;;;;;15.44;79.25;100154.53;10413006;28;20033;-73
2022/05/24 20:06:30;;;;;;;2.70;1.60;;;;;;;15.39;79.66;100159.69;10384074;28;20053;-75
2022/05/24 20:11:32;;;;;;;3.83;2.20;;;;;;;15.43;80.21;100187.69;10371675;28;20040;-73
2022/05/24 20:16:34;;;;;;;4.15;2.20;;;;;;;15.30;80.96;100182.31;10371645;28;20157;-73
2022/05/24 20:21:35;;;;;;;3.25;2.08;;;;;;;14.24;82.13;100051.75;10371106;28;20545;-73
2022/05/24 20:26:35;;;;;;;6.55;2.20;;;;;;;14.92;83.49;100180.13;10370629;28;20076;-72
2022/05/24 20:31:36;;;;;;;4.47;1.77;;;;;;;13.83;84.78;100049.06;10371964;28;20505;-71
2022/05/24 20:36:37;;;;;;;2.30;1.50;;;;;;;14.57;85.45;100203.44;10375381;28;20064;-70
2022/05/24 20:41:38;;;;;;;4.88;1.85;;;;;;;14.39;86.23;100199.41;10373163;28;20046;-70
2022/05/24 20:46:39;;;;;;;3.42;1.80;;;;;;;14.33;87.73;100210.88;10376893;28;20042;-70
2022/05/24 20:51:40;;;;;;;4.95;1.95;;;;;;;14.28;88.40;100212.47;10378228;28;20042;-70
2022/05/24 20:56:41;;;;;;;3.80;1.85;;;;;;;14.17;89.08;100219.19;10377491;28;20041;-70
2022/05/24 21:01:42;;;;;;;2.70;2.00;;;;;;;14.02;90.06;100218.44;10378304;28;20042;-69
2022/05/24 21:06:44;;;;;;;4.00;1.90;;;;;;;13.91;91.53;100209.13;10378164;28;20041;-69
2022/05/24 21:11:45;;;;;;;3.10;1.95;;;;;;;12.77;92.01;100023.19;10376604;28;20112;-69
2022/05/24 21:16:46;;;;;;;4.05;2.15;;;;;;;13.02;92.67;100047.59;10377129;28;20038;-69
2022/05/24 21:21:46;;;;;;;3.10;2.00;;;;;;;13.96;93.31;100205.88;10377014;28;20042;-69
2022/05/24 21:32:07;;;;;;;3.72;1.85;;;;;;;13.86;94.42;100211.56;10376947;28;20095;-70
2022/05/24 21:37:08;;;;;;;2.90;1.80;;;;;;;13.42;94.67;100151.19;10376221;28;20056;-69
2022/05/24 21:42:08;;;;;;;4.07;2.08;;;;;;;13.72;95.26;100221.28;10375762;28;20129;-69
2022/05/24 21:47:10;;;;;;;7.03;2.15;;;;;;;13.56;95.39;100216.22;10375424;28;20042;-69
2022/05/24 21:52:11;;;;;;;4.93;2.30;;;;;;;12.49;95.84;100046.22;10375512;28;20074;-70
2022/05/24 21:57:13;;;;;;;4.25;1.95;;;;;;;13.57;96.63;100224.00;10375132;28;20141;-70
2022/05/24 22:02:14;;;;;;;3.67;2.13;;;;;;;13.54;96.73;100239.59;10374922;28;20093;-70
2022/05/24 22:07:15;;;;;;;3.00;2.33;;;;;;;12.67;96.72;100093.78;10390578;28;20046;-70
2022/05/24 22:12:16;;;;;;;6.10;2.40;;;;;;;13.62;97.23;100255.47;10374461;28;20108;-70
2022/05/24 22:17:17;;;;;;;3.83;1.92;;;;;;;13.62;97.25;100252.81;10374805;28;20501;-70
2022/05/24 22:22:17;;;;;;;4.72;2.10;;;;;;;13.57;97.28;100271.22;10374206;28;20038;-70
2022/05/24 22:27:18;;;;;;;5.68;2.63;;;;;;;13.43;97.16;100260.44;10373924;28;20030;-70
2022/05/24 22:32:19;;;;;;;7.50;2.78;;;;;;;13.25;97.24;100249.31;10374000;28;20044;-71
2022/05/24 22:37:20;;;;;;;4.13;2.10;;;;;;;12.22;97.34;100107.16;10374685;28;20073;-70
2022/05/24 22:42:21;;;;;;;9.30;2.90;;;;;;;13.35;98.26;100284.53;10374010;28;20092;-70
2022/05/24 22:47:33;;;;;;;3.25;2.03;;;;;;;12.68;99.24;100170.03;10373948;28;20042;-70
2022/05/24 22:52:36;;;;;;;5.35;2.30;;;;;;;13.33;98.82;100291.06;10373044;28;20497;-70
2022/05/24 22:57:37;;;;;;;3.65;2.45;;;;;;;13.24;98.44;100283.13;10372900;28;20068;-70
2022/05/24 23:02:38;;;;;;;2.70;2.10;;;;;;;12.90;98.54;100240.25;10373458;28;20065;-71
2022/05/24 23:07:39;;;;;;;3.72;2.10;;;;;;;12.99;98.62;100269.31;10373143;28;20042;-70
2022/05/24 23:12:41;;;;;;;3.65;2.00;;;;;;;12.94;98.73;100262.88;10373337;28;20042;-70
2022/05/24 23:17:41;;;;;;;2.45;1.63;;;;;;;13.12;98.49;100300.63;10372187;28;20038;-70
2022/05/24 23:22:42;;;;;;;4.95;2.05;;;;;;;12.16;98.12;100150.50;10372859;28;20124;-71
2022/05/24 23:27:43;;;;;;;5.13;2.20;;;;;;;13.09;98.12;100314.34;10373347;28;20036;-71
2022/05/24 23:32:44;;;;;;;4.40;2.60;;;;;;;12.79;98.31;100269.03;10372720;28;20034;-70
2022/05/24 23:37:44;;;;;;;3.30;1.88;;;;;;;13.16;98.33;100311.75;10373459;28;20064;-70
2022/05/24 23:42:45;;;;;;;2.85;2.10;;;;;;;13.20;98.15;100323.72;10372307;28;20100;-71
2022/05/24 23:47:46;;;;;;;8.07;2.05;;;;;;;13.17;97.90;100340.94;10372292;28;20038;-70
2022/05/24 23:52:47;;;;;;;4.85;1.75;;;;;;;12.37;97.61;100210.22;10371949;28;20096;-71
2022/05/24 23:57:47;;;;;;;2.67;1.80;;;;;;;13.10;98.16;100334.69;10371506;28;20038;-70
